Etusivu
METAR-TAF:

METAR-TAF

Lentoasemat :

Kirksville Regional Airport

Kirksville, Missouri, Yhdysvallat

Leveyspiiri: 40-05-50N, Pituuspiiri: 092-32-36W, korkeus merenpinnasta: 294 m

Tämänhetkinen sää

Tämä raportti tehtiin 53 minuuttia sitten, kello 18.55 UTC
Tuuli 8 kn idästä
Lämpötila 23°C
Kosteus 50%
Ilmanpaine 1019 hPa
Näkyvyys: 16.1 km
selkeää

METAR: KIRK 231855Z AUTO 08008KT 10SM CLR 23/12 A3009 RMK AO2 SLP189 T02330117

Aika: 14:48 (19:48 UTC)


TAF: puuttuu

Säähavainnot ja -ennusteet yli 4000 lentoasemalta (METAR- ja TAF-raportit).

Käytössä olevat sääasemat on merkitty karttaan keltaisilla ja punaisilla pisteillä.

Aseta hiiri pisteen päälle nähdäksesi sääaseman nimen.

Klikkaa sitten nähdäksesi säähavainnot ja -ennusteet.

Kartan vaihtaminen: klikkaa mustalla rastilla varustettuja vihreitä pisteitä, niin voit zoomata sisään; viivalla varustettua vihreää pistettä, niin voit zoomata ulos tai vihreitä nuolia, niin pääset viereisille kartoille.


METAR-TAF: